Time;durP1;ratioP1;P1;durP2;ratioP2;P2;SDS_P1;SDS_P2;PMS_P1;PMS_P2;Temp;Humidity;BMP_temperature;BMP_pressure;BME280_temperature;BME280_humidity;BME280_pressure;Samples;Min_cycle;Max_cycle;Signal;HPM_P1;HPM_P2
2021/10/05 00:00:22;;;;;;;6.20;3.75;;;;;;;10.48;95.28;100863.19;4946398;28;20051;-84
2021/10/05 00:02:48;;;;;;;7.15;3.50;;;;;;;10.49;95.15;100864.00;4926492;28;20070;-83
2021/10/05 00:05:14;;;;;;;6.32;3.75;;;;;;;10.49;95.22;100867.53;4936988;28;20134;-83
2021/10/05 00:07:40;;;;;;;5.63;3.22;;;;;;;10.49;95.19;100867.53;4938755;28;20077;-83
2021/10/05 00:10:07;;;;;;;5.68;3.38;;;;;;;10.52;95.23;100853.78;4932609;28;20059;-84
2021/10/05 00:12:33;;;;;;;5.10;3.53;;;;;;;10.53;95.15;100854.63;4924715;28;20059;-82
2021/10/05 00:14:59;;;;;;;6.65;3.92;;;;;;;10.53;94.99;100858.16;4926151;29;20055;-83
2021/10/05 00:17:25;;;;;;;5.13;3.38;;;;;;;10.48;95.28;100849.75;4926739;28;20406;-83
2021/10/05 00:19:51;;;;;;;9.57;3.70;;;;;;;10.49;95.33;100843.38;4925458;28;20071;-84
2021/10/05 00:22:16;;;;;;;8.13;3.70;;;;;;;10.51;95.43;100844.06;4926516;28;20047;-83
2021/10/05 00:24:42;;;;;;;6.57;3.42;;;;;;;10.53;95.07;100847.44;4941162;28;20403;-84
2021/10/05 00:27:08;;;;;;;6.50;3.67;;;;;;;10.52;95.26;100831.47;4928067;28;20217;-83
2021/10/05 00:29:33;;;;;;;6.28;4.00;;;;;;;10.47;95.45;100831.13;4925787;28;20494;-83
2021/10/05 00:31:59;;;;;;;7.43;4.22;;;;;;;10.47;95.54;100828.44;4926740;29;20149;-82
2021/10/05 00:34:24;;;;;;;6.25;3.58;;;;;;;10.47;95.52;100823.94;4926671;29;20418;-83
2021/10/05 00:36:50;;;;;;;7.30;4.00;;;;;;;10.48;95.52;100817.56;4924124;29;20075;-84
2021/10/05 00:39:15;;;;;;;6.75;3.50;;;;;;;10.43;95.72;100809.16;4941027;28;20056;-83
2021/10/05 00:41:41;;;;;;;7.95;4.13;;;;;;;10.41;96.04;100803.09;4923685;29;20043;-84
2021/10/05 00:44:06;;;;;;;6.22;4.20;;;;;;;10.39;96.00;100816.69;4926242;29;20199;-83
2021/10/05 00:46:34;;;;;;;7.57;3.80;;;;;;;10.36;96.09;100810.81;4924339;28;20081;-82
2021/10/05 00:49:00;;;;;;;6.60;4.28;;;;;;;10.33;96.33;100811.16;4927724;29;20051;-83
2021/10/05 00:51:26;;;;;;;8.40;4.40;;;;;;;10.33;96.64;100811.16;4940758;28;20506;-84
2021/10/05 00:53:53;;;;;;;9.20;4.90;;;;;;;10.31;96.69;100805.94;4924582;29;20056;-84
2021/10/05 00:56:20;;;;;;;5.72;4.00;;;;;;;10.26;97.20;100797.50;4925876;29;20805;-83
2021/10/05 00:58:45;;;;;;;7.97;4.65;;;;;;;10.24;97.25;100801.34;4927339;29;20134;-83
2021/10/05 01:01:12;;;;;;;6.13;4.07;;;;;;;10.25;97.30;100806.56;4926779;29;20160;-83
2021/10/05 01:03:39;;;;;;;7.55;4.50;;;;;;;10.20;97.42;100805.34;4921708;28;20059;-83
2021/10/05 01:06:05;;;;;;;6.80;4.68;;;;;;;10.20;97.55;100800.00;4923590;29;20044;-82
2021/10/05 01:08:32;;;;;;;6.35;4.30;;;;;;;10.17;97.58;100798.47;4925085;29;20123;-83
2021/10/05 01:10:58;;;;;;;7.75;5.05;;;;;;;10.17;97.78;100785.06;4939670;28;20498;-83
2021/10/05 01:13:24;;;;;;;6.38;4.45;;;;;;;10.15;98.01;100789.75;4948502;28;20058;-83
2021/10/05 01:15:49;;;;;;;5.55;4.03;;;;;;;10.14;98.02;100777.34;4947424;28;20052;-83
2021/10/05 01:18:15;;;;;;;6.80;4.03;;;;;;;10.12;98.09;100779.34;4948191;28;20057;-82
2021/10/05 01:21:05;;;;;;;7.53;4.90;;;;;;;10.15;97.97;100777.16;4959364;28;20075;-83
2021/10/05 01:23:33;;;;;;;6.25;4.35;;;;;;;10.09;97.99;100761.72;4947470;28;20113;-83
2021/10/05 01:25:59;;;;;;;8.07;5.07;;;;;;;10.06;98.22;100764.72;4968007;28;20074;-82
2021/10/05 01:28:26;;;;;;;8.52;4.22;;;;;;;10.03;98.67;100769.59;4968282;28;20054;-83
2021/10/05 01:30:52;;;;;;;7.45;4.47;;;;;;;9.98;98.81;100755.81;4962202;28;20043;-85
2021/10/05 01:33:21;;;;;;;7.82;5.05;;;;;;;9.96;98.96;100757.84;4966604;28;20065;-82
2021/10/05 01:35:47;;;;;;;;;;;;;;;9.97;98.96;100763.03;4967194;28;20062;-83
2021/10/05 01:38:12;;;;;;;7.57;5.35;;;;;;;9.86;99.51;100766.00;4967926;28;19918;-82
2021/10/05 01:40:37;;;;;;;9.20;5.15;;;;;;;9.84;99.83;100773.34;4946192;28;20050;-83
2021/10/05 01:43:03;;;;;;;8.27;5.20;;;;;;;9.85;99.82;100764.31;4960868;28;20077;-82
2021/10/05 01:45:30;;;;;;;8.30;5.28;;;;;;;9.84;99.84;100758.13;4964958;28;20509;-82
2021/10/05 01:47:55;;;;;;;10.00;4.88;;;;;;;9.84;99.96;100760.81;4949562;28;20058;-83
2021/10/05 01:50:20;;;;;;;8.00;5.32;;;;;;;9.83;99.65;100756.44;4953498;28;20047;-82
2021/10/05 01:52:47;;;;;;;8.32;5.07;;;;;;;9.78;100.00;100742.69;4948355;28;20051;-82
2021/10/05 01:55:13;;;;;;;7.60;4.95;;;;;;;9.75;100.00;100742.97;4964743;28;20054;-84
2021/10/05 01:57:38;;;;;;;8.82;5.22;;;;;;;9.76;100.00;100735.81;4967019;28;20324;-82
2021/10/05 02:00:07;;;;;;;8.07;5.18;;;;;;;9.70;100.00;100735.44;4965232;28;20121;-82
2021/10/05 02:02:33;;;;;;;7.18;5.72;;;;;;;9.68;100.00;100732.06;4931008;28;20056;-82
2021/10/05 02:04:58;;;;;;;8.65;5.63;;;;;;;9.62;100.00;100723.84;4943413;28;20506;-82
2021/10/05 02:07:23;;;;;;;8.00;5.05;;;;;;;9.63;100.00;100723.66;4953737;28;20082;-82
2021/10/05 02:09:49;;;;;;;7.97;5.60;;;;;;;9.59;100.00;100721.47;4956593;28;20521;-82
2021/10/05 02:12:16;;;;;;;7.72;5.00;;;;;;;9.59;100.00;100713.44;4956980;28;20057;-82
2021/10/05 02:14:43;;;;;;;8.90;5.95;;;;;;;9.55;100.00;100714.75;4955972;28;20121;-82
2021/10/05 02:17:08;;;;;;;8.13;5.43;;;;;;;9.51;100.00;100700.84;4951924;28;20055;-82
2021/10/05 02:19:34;;;;;;;10.13;6.22;;;;;;;9.52;100.00;100709.72;4956357;28;20159;-82
2021/10/05 02:22:00;;;;;;;8.07;5.47;;;;;;;9.52;100.00;100707.03;4955752;28;20051;-83
2021/10/05 02:26:56;;;;;;;7.38;5.45;;;;;;;9.51;100.00;100692.81;4966903;28;20054;-83
2021/10/05 02:29:22;;;;;;;10.27;5.93;;;;;;;9.51;100.00;100692.81;4947293;28;20130;-82
2021/10/05 02:31:49;;;;;;;9.45;6.10;;;;;;;9.52;100.00;100680.25;4944147;28;20039;-82
2021/10/05 02:34:14;;;;;;;7.85;5.57;;;;;;;9.49;100.00;100676.03;4942567;28;20039;-83
2021/10/05 02:36:42;;;;;;;8.15;5.22;;;;;;;9.49;100.00;100673.38;4950603;28;20062;-81
2021/10/05 02:39:08;;;;;;;7.32;5.75;;;;;;;9.49;100.00;100674.22;4953384;28;20040;-84
2021/10/05 02:41:34;;;;;;;6.63;5.10;;;;;;;9.52;100.00;100677.56;4957607;28;20047;-82
2021/10/05 02:43:59;;;;;;;8.52;5.80;;;;;;;9.49;100.00;100674.22;4950321;28;20602;-82
2021/10/05 02:46:24;;;;;;;6.95;4.97;;;;;;;9.48;100.00;100667.16;4950203;28;20418;-82
2021/10/05 02:48:50;;;;;;;8.27;5.80;;;;;;;9.49;100.00;100668.88;4966298;28;20042;-81
2021/10/05 02:51:15;;;;;;;6.38;5.28;;;;;;;9.49;100.00;100662.66;4966639;28;20043;-84
2021/10/05 02:53:40;;;;;;;7.22;5.43;;;;;;;9.49;100.00;100654.63;4945594;29;20499;-83
2021/10/05 02:56:06;;;;;;;6.50;5.40;;;;;;;9.50;100.00;100659.00;4963275;28;20066;-82
2021/10/05 02:58:32;;;;;;;6.95;5.20;;;;;;;9.53;100.00;100650.63;4945244;28;20052;-82
2021/10/05 03:00:57;;;;;;;7.78;5.25;;;;;;;9.53;100.00;100644.44;4954249;28;20061;-82
2021/10/05 03:03:23;;;;;;;8.45;4.85;;;;;;;9.53;100.00;100642.59;4965300;28;20536;-82
2021/10/05 03:05:48;;;;;;;9.02;4.60;;;;;;;9.52;100.00;100638.22;4937751;28;20501;-82
2021/10/05 03:08:13;;;;;;;8.45;4.53;;;;;;;9.52;100.00;100635.53;4947817;28;20047;-82
2021/10/05 03:10:39;;;;;;;6.35;4.93;;;;;;;9.53;100.00;100626.53;4930628;28;20139;-83
2021/10/05 03:13:05;;;;;;;8.45;4.50;;;;;;;9.56;100.00;100626.19;4928944;28;20054;-82
2021/10/05 03:15:31;;;;;;;5.38;4.57;;;;;;;9.57;100.00;100619.81;4926028;28;20051;-82
2021/10/05 03:17:57;;;;;;;6.07;4.60;;;;;;;9.59;100.00;100617.84;4930068;28;20039;-82
2021/10/05 03:20:22;;;;;;;6.70;4.18;;;;;;;9.61;100.00;100615.84;4939184;28;20546;-82
2021/10/05 03:22:47;;;;;;;6.50;4.57;;;;;;;9.64;100.00;100612.84;4942801;28;20044;-82
2021/10/05 03:25:13;;;;;;;6.90;4.70;;;;;;;9.65;100.00;100609.13;4916558;28;20043;-82
2021/10/05 03:27:38;;;;;;;5.82;4.65;;;;;;;9.66;100.00;100601.94;4941439;29;20067;-84
2021/10/05 03:30:06;;;;;;;7.88;4.90;;;;;;;9.67;100.00;100606.31;4957858;28;20109;-83
2021/10/05 03:32:31;;;;;;;7.75;4.57;;;;;;;9.64;100.00;100596.75;4944386;28;20549;-83
2021/10/05 03:34:57;;;;;;;6.85;5.13;;;;;;;9.66;100.00;100592.06;4942045;28;20058;-81
2021/10/05 03:37:23;;;;;;;6.93;4.55;;;;;;;9.65;100.00;100593.06;4940477;28;20043;-83
2021/10/05 03:39:49;;;;;;;5.78;4.70;;;;;;;9.67;100.00;100590.25;4945127;28;20059;-84
2021/10/05 03:42:14;;;;;;;5.63;5.03;;;;;;;9.67;100.00;100580.34;4964605;28;20051;-82
2021/10/05 03:44:41;;;;;;;8.82;5.20;;;;;;;9.68;100.00;100581.19;4953099;28;20055;-82
2021/10/05 03:47:06;;;;;;;6.18;4.90;;;;;;;9.67;100.00;100580.34;4944296;28;20081;-83
2021/10/05 03:49:32;;;;;;;6.85;4.70;;;;;;;9.68;100.00;100584.69;4944036;28;20071;-82
2021/10/05 03:51:58;;;;;;;6.97;5.10;;;;;;;9.68;100.00;100581.19;4942400;28;20521;-82
2021/10/05 03:54:23;;;;;;;7.43;4.88;;;;;;;9.65;100.00;100566.28;4939364;28;20050;-82
2021/10/05 03:56:48;;;;;;;6.55;4.72;;;;;;;9.63;100.00;100578.16;4934900;28;20055;-82
2021/10/05 03:59:17;;;;;;;8.95;4.97;;;;;;;9.61;100.00;100575.66;4915658;29;20143;-81
2021/10/05 04:01:43;;;;;;;6.25;5.18;;;;;;;9.62;100.00;100571.13;4910492;28;20059;-83
2021/10/05 04:04:09;;;;;;;8.63;5.13;;;;;;;9.62;100.00;100568.44;4934438;28;20055;-83
2021/10/05 04:06:34;;;;;;;5.65;4.18;;;;;;;9.63;100.00;100567.44;4929391;28;20134;-83
2021/10/05 04:09:03;;;;;;;7.40;5.00;;;;;;;9.65;100.00;100566.28;4923974;29;20071;-82
2021/10/05 04:11:29;;;;;;;6.72;4.50;;;;;;;9.66;100.00;100557.22;4930344;28;20510;-82
2021/10/05 04:13:55;;;;;;;7.20;4.88;;;;;;;9.64;100.00;100559.25;4933975;28;20056;-82
2021/10/05 04:16:21;;;;;;;7.05;4.63;;;;;;;9.61;100.00;100556.03;4936037;28;20067;-83
2021/10/05 04:18:46;;;;;;;8.07;5.10;;;;;;;9.61;100.00;100548.00;4940682;28;20055;-81
2021/10/05 04:21:11;;;;;;;8.98;4.80;;;;;;;9.59;100.00;100544.66;4951901;28;20151;-83
2021/10/05 04:23:37;;;;;;;7.90;5.45;;;;;;;9.58;100.00;100543.84;4937399;28;20058;-82
2021/10/05 04:26:02;;;;;;;6.32;4.70;;;;;;;9.56;100.00;100551.19;4936982;28;20573;-84
2021/10/05 04:28:28;;;;;;;7.10;4.97;;;;;;;9.57;100.00;100547.50;4934907;28;20055;-84
2021/10/05 04:30:53;;;;;;;6.70;5.20;;;;;;;9.55;100.00;100541.47;4933310;28;20056;-82
2021/10/05 04:33:19;;;;;;;8.35;5.88;;;;;;;9.57;100.00;100535.94;4939954;28;20398;-81
2021/10/05 04:35:44;;;;;;;10.38;5.80;;;;;;;9.56;100.00;100524.41;4948056;28;20043;-83
2021/10/05 04:38:09;;;;;;;7.70;6.10;;;;;;;9.57;100.00;100523.38;4937084;28;20387;-81
2021/10/05 04:40:35;;;;;;;9.38;5.90;;;;;;;9.59;100.00;100523.25;4933617;28;20464;-81
2021/10/05 04:43:00;;;;;;;7.90;5.85;;;;;;;9.57;100.00;100515.34;4937051;28;20521;-82
2021/10/05 04:45:25;;;;;;;10.57;7.15;;;;;;;9.56;100.00;100508.31;4943325;28;20046;-83
2021/10/05 04:47:51;;;;;;;10.48;6.60;;;;;;;9.58;100.00;100513.50;4944682;28;20114;-83
2021/10/05 04:50:16;;;;;;;14.75;7.30;;;;;;;9.57;100.00;100515.34;4947141;28;20360;-82
2021/10/05 04:52:42;;;;;;;9.90;6.55;;;;;;;9.56;100.00;100502.97;4943346;28;20122;-82
2021/10/05 04:55:09;;;;;;;10.43;7.10;;;;;;;9.55;100.00;100497.75;4952723;28;20043;-81
2021/10/05 04:57:35;;;;;;;13.73;7.85;;;;;;;9.53;100.00;100503.31;4947661;28;20119;-81
2021/10/05 05:00:00;;;;;;;10.55;6.55;;;;;;;9.52;100.00;100509.63;4927068;29;20500;-81
2021/10/05 05:02:26;;;;;;;10.30;6.53;;;;;;;9.55;100.00;100500.44;4929238;28;20063;-82
2021/10/05 05:04:51;;;;;;;9.48;6.63;;;;;;;9.56;100.00;100497.59;4925393;28;20063;-84
2021/10/05 05:07:17;;;;;;;6.63;5.25;;;;;;;9.53;100.00;100492.59;4936292;28;20056;-81
2021/10/05 05:09:42;;;;;;;12.00;5.88;;;;;;;9.55;100.00;100493.25;4936335;28;20063;-82
2021/10/05 05:12:08;;;;;;;7.28;5.32;;;;;;;9.55;100.00;100490.59;4934173;28;20047;-82
2021/10/05 05:14:34;;;;;;;7.70;4.97;;;;;;;9.52;100.00;100493.56;4930659;29;20426;-81
2021/10/05 05:16:59;;;;;;;9.70;5.30;;;;;;;9.51;100.00;100494.59;4937812;28;20055;-81
2021/10/05 05:19:24;;;;;;;7.82;5.55;;;;;;;9.46;100.00;100491.56;4911297;28;20056;-83
2021/10/05 05:21:50;;;;;;;6.15;4.95;;;;;;;9.50;100.00;100482.19;4945769;28;20637;-81
2021/10/05 05:24:15;;;;;;;5.40;4.72;;;;;;;9.49;100.00;100483.19;4957859;28;20110;-81
2021/10/05 05:26:41;;;;;;;8.05;5.65;;;;;;;9.48;100.00;100485.03;4932119;28;20043;-82
2021/10/05 05:29:06;;;;;;;8.35;5.32;;;;;;;9.53;100.00;100481.03;4948884;28;20469;-81
2021/10/05 05:31:32;;;;;;;9.38;5.15;;;;;;;9.49;100.00;100477.81;4938075;28;20059;-82
2021/10/05 05:33:57;;;;;;;9.85;5.43;;;;;;;9.48;100.00;100468.13;4938500;28;20090;-81
2021/10/05 05:36:22;;;;;;;8.98;5.40;;;;;;;9.47;100.00;100461.09;4939115;28;20059;-82
2021/10/05 05:38:48;;;;;;;6.82;4.93;;;;;;;9.44;100.00;100464.13;4936565;28;20058;-81
2021/10/05 05:41:13;;;;;;;9.20;5.47;;;;;;;9.46;100.00;100467.44;4934633;28;20092;-81
2021/10/05 05:43:39;;;;;;;8.63;6.18;;;;;;;9.42;100.00;100463.44;4941347;28;20056;-81
2021/10/05 05:46:04;;;;;;;7.78;5.38;;;;;;;9.40;100.00;100457.41;4936915;28;20090;-82
2021/10/05 05:48:29;;;;;;;7.25;5.85;;;;;;;9.37;100.00;100460.41;4938173;28;20047;-81
2021/10/05 05:50:55;;;;;;;10.20;5.88;;;;;;;9.37;100.00;100455.88;4944797;28;20488;-80
2021/10/05 05:53:20;;;;;;;9.60;6.28;;;;;;;9.37;100.00;100449.69;4939047;28;20105;-84
2021/10/05 05:55:46;;;;;;;8.35;5.90;;;;;;;9.34;100.00;100452.69;4937600;28;20063;-83
2021/10/05 05:58:16;;;;;;;8.55;6.28;;;;;;;9.31;100.00;100445.00;4937355;28;20055;-82
2021/10/05 06:00:45;;;;;;;7.78;6.40;;;;;;;9.30;100.00;100441.50;4936406;28;20557;-82
2021/10/05 06:03:11;;;;;;;;;;;;;;;9.30;100.00;100443.34;4935036;28;20048;-81
2021/10/05 06:05:37;;;;;;;8.40;6.40;;;;;;;9.19;100.00;100431.91;4934110;28;19927;-81
2021/10/05 06:08:03;;;;;;;9.38;6.35;;;;;;;9.19;100.00;100439.13;4933113;28;20085;-82
2021/10/05 06:10:29;;;;;;;8.43;6.32;;;;;;;9.22;100.00;100436.13;4937761;28;20048;-81
2021/10/05 06:12:55;;;;;;;9.13;6.20;;;;;;;9.24;100.00;100439.47;4914326;28;20063;-81
2021/10/05 06:15:22;;;;;;;8.57;6.07;;;;;;;9.30;100.00;100432.63;4935500;28;20063;-81
2021/10/05 06:17:49;;;;;;;8.35;6.28;;;;;;;9.30;100.00;100430.78;4941594;28;20073;-81
2021/10/05 06:20:21;;;;;;;8.40;6.30;;;;;;;9.33;100.00;100427.78;4939485;28;20055;-81
2021/10/05 06:22:46;;;;;;;10.27;6.70;;;;;;;9.34;100.00;100426.75;4937597;28;20050;-82
2021/10/05 06:25:17;;;;;;;7.78;6.50;;;;;;;9.33;100.00;100426.94;4935267;28;20469;-80
2021/10/05 06:27:44;;;;;;;8.43;6.18;;;;;;;9.33;100.00;100422.41;4926802;29;20042;-81
2021/10/05 06:30:12;;;;;;;7.93;6.85;;;;;;;9.33;100.00;100417.06;4939467;28;20082;-81
2021/10/05 06:32:38;;;;;;;8.82;6.80;;;;;;;9.34;100.00;100415.22;4932924;28;20051;-81
2021/10/05 06:35:05;;;;;;;9.60;7.10;;;;;;;9.33;100.00;100411.69;4940299;28;20130;-81
2021/10/05 06:37:30;;;;;;;8.95;7.00;;;;;;;9.35;100.00;100419.56;4927735;28;20044;-81
2021/10/05 06:39:56;;;;;;;9.88;7.38;;;;;;;9.36;100.00;100419.41;4937693;28;20098;-82
2021/10/05 06:42:21;;;;;;;8.80;6.57;;;;;;;9.35;100.00;100414.19;4936154;28;20151;-81
2021/10/05 06:44:47;;;;;;;9.63;6.97;;;;;;;9.35;100.00;100403.47;4911615;28;20510;-83
2021/10/05 06:47:13;;;;;;;11.18;7.25;;;;;;;9.35;100.00;100415.06;4932630;28;20062;-81
2021/10/05 06:49:38;;;;;;;9.98;6.97;;;;;;;9.37;100.00;100398.81;4930809;28;20061;-81
2021/10/05 06:52:05;;;;;;;9.57;7.32;;;;;;;9.39;100.00;100402.16;4943704;28;20059;-83
2021/10/05 06:54:31;;;;;;;9.88;7.05;;;;;;;9.38;100.00;100395.97;4943722;28;20753;-82
2021/10/05 06:56:57;;;;;;;10.20;7.00;;;;;;;9.39;100.00;100400.31;4942758;28;20055;-81
2021/10/05 06:59:23;;;;;;;10.73;7.80;;;;;;;9.41;100.00;100392.13;4943753;28;20138;-81
2021/10/05 07:01:49;;;;;;;9.27;7.03;;;;;;;9.43;100.00;100393.63;4942943;28;20130;-81
2021/10/05 07:04:14;;;;;;;9.95;7.28;;;;;;;9.48;100.00;100393.13;4941188;28;20083;-81
2021/10/05 07:06:40;;;;;;;11.45;7.45;;;;;;;9.54;100.00;100397.81;4944048;28;20047;-81
2021/10/05 07:09:05;;;;;;;9.48;7.47;;;;;;;9.58;100.00;100396.50;4945917;28;20073;-82
2021/10/05 07:11:34;;;;;;;10.77;7.22;;;;;;;9.65;100.00;100394.81;4943745;28;20051;-81
2021/10/05 07:14:00;;;;;;;9.50;7.32;;;;;;;9.68;100.00;100391.78;4943091;28;20050;-81
2021/10/05 07:16:26;;;;;;;9.70;7.00;;;;;;;9.74;100.00;100379.56;4941832;28;20615;-81
2021/10/05 07:18:52;;;;;;;8.85;7.18;;;;;;;9.80;100.00;100381.56;4944132;28;20341;-82
2021/10/05 07:21:18;;;;;;;9.25;6.68;;;;;;;9.85;100.00;100373.03;4944386;28;20134;-81
2021/10/05 07:23:44;;;;;;;10.60;6.78;;;;;;;9.91;100.00;100373.16;4943457;28;20409;-82
2021/10/05 07:26:09;;;;;;;7.80;6.30;;;;;;;9.97;100.00;100368.16;4943462;28;20082;-81
2021/10/05 07:28:35;;;;;;;9.10;6.88;;;;;;;10.03;100.00;100368.28;4943295;28;20078;-83
2021/10/05 07:31:00;;;;;;;7.30;6.28;;;;;;;10.10;100.00;100355.06;4943892;28;20109;-81
2021/10/05 07:33:27;;;;;;;7.88;5.90;;;;;;;10.14;100.00;100346.47;4943116;28;20059;-82
2021/10/05 07:35:53;;;;;;;7.65;5.90;;;;;;;10.21;100.00;100357.34;4941763;28;20134;-82
2021/10/05 07:38:18;;;;;;;9.13;6.90;;;;;;;10.27;100.00;100356.72;4942317;28;20130;-83
2021/10/05 07:40:44;;;;;;;10.15;6.35;;;;;;;10.32;100.00;100348.13;4942586;28;20055;-81
2021/10/05 07:43:09;;;;;;;8.82;6.88;;;;;;;10.35;100.00;100337.06;4944205;28;20065;-81
2021/10/05 07:45:36;;;;;;;7.70;6.18;;;;;;;10.38;100.00;100348.25;4931049;28;20082;-83
2021/10/05 07:48:04;;;;;;;7.65;6.18;;;;;;;10.43;100.00;100345.06;4947483;28;20059;-82
2021/10/05 07:50:30;;;;;;;8.35;6.10;;;;;;;10.47;100.00;100346.41;4946846;28;20581;-82
2021/10/05 07:52:55;;;;;;;7.15;5.55;;;;;;;10.51;100.00;100358.44;4927178;28;20051;-82
2021/10/05 07:55:21;;;;;;;9.23;6.47;;;;;;;10.60;100.00;100352.03;4948283;28;20071;-82
2021/10/05 07:57:47;;;;;;;7.68;6.32;;;;;;;10.65;100.00;100348.84;4945947;28;20146;-82
2021/10/05 08:00:14;;;;;;;8.90;5.45;;;;;;;10.73;100.00;100337.19;4948355;28;20138;-81
2021/10/05 08:02:39;;;;;;;7.35;5.45;;;;;;;10.78;100.00;100338.34;4946693;28;20146;-82
2021/10/05 08:05:06;;;;;;;6.82;5.38;;;;;;;10.84;99.40;100334.94;4946299;28;20409;-83
2021/10/05 08:07:31;;;;;;;9.20;6.15;;;;;;;10.94;99.73;100334.75;4947922;28;20043;-82
2021/10/05 08:09:58;;;;;;;8.55;5.55;;;;;;;11.08;99.09;100330.47;4948605;28;20049;-82
2021/10/05 08:12:24;;;;;;;8.02;5.30;;;;;;;11.24;98.99;100327.63;4944529;28;20060;-81
2021/10/05 08:14:50;;;;;;;6.80;5.15;;;;;;;11.38;97.87;100317.13;4944002;28;20047;-82
2021/10/05 08:17:16;;;;;;;6.32;5.35;;;;;;;11.50;97.22;100310.28;4945133;28;20048;-82
2021/10/05 08:19:42;;;;;;;7.63;5.07;;;;;;;11.65;97.06;100313.00;4946231;28;20047;-83
2021/10/05 08:22:08;;;;;;;6.95;5.15;;;;;;;11.81;95.81;100312.84;4946280;28;20113;-82
2021/10/05 08:24:35;;;;;;;7.60;5.03;;;;;;;11.87;95.19;100312.13;4945888;28;20078;-84
2021/10/05 08:27:01;;;;;;;5.65;4.60;;;;;;;11.97;94.71;100301.13;4945592;28;20082;-81
2021/10/05 08:29:26;;;;;;;6.65;4.47;;;;;;;12.12;94.68;100293.06;4947351;28;20074;-82
2021/10/05 08:31:51;;;;;;;6.25;4.57;;;;;;;12.29;93.54;100297.22;4947588;28;20507;-82
2021/10/05 08:34:18;;;;;;;6.65;4.63;;;;;;;12.39;92.86;100294.22;4946355;28;20055;-82
2021/10/05 08:36:44;;;;;;;5.90;4.70;;;;;;;12.47;93.01;100283.34;4949391;28;20124;-84
2021/10/05 08:39:16;;;;;;;6.10;4.10;;;;;;;12.63;92.59;100282.31;4953419;28;20051;-82
2021/10/05 08:41:46;;;;;;;7.22;4.47;;;;;;;12.77;91.51;100291.34;4945781;28;20051;-83
2021/10/05 08:44:13;;;;;;;5.35;3.70;;;;;;;12.92;90.85;100277.81;4941906;28;20056;-82
2021/10/05 08:46:40;;;;;;;4.35;3.28;;;;;;;13.05;90.17;100276.09;4935416;28;20055;-84
2021/10/05 08:49:07;;;;;;;5.22;2.97;;;;;;;13.18;89.71;100278.09;4939427;28;20077;-83
2021/10/05 08:51:32;;;;;;;4.45;3.28;;;;;;;13.30;89.01;100273.03;4913051;28;20054;-82
2021/10/05 08:53:58;;;;;;;4.97;3.17;;;;;;;13.45;88.98;100265.69;4935738;28;20055;-83
2021/10/05 08:56:23;;;;;;;4.50;3.00;;;;;;;13.53;87.58;100265.53;4933134;28;20137;-82
2021/10/05 08:58:49;;;;;;;4.50;2.97;;;;;;;13.53;86.51;100265.53;4935938;28;20063;-85
2021/10/05 09:01:17;;;;;;;6.05;2.70;;;;;;;13.50;86.04;100263.25;4925966;29;20048;-82
2021/10/05 09:03:51;;;;;;;8.60;2.73;;;;;;;13.48;86.14;100251.81;4933455;28;20058;-83
2021/10/05 09:06:19;;;;;;;4.63;2.75;;;;;;;13.51;86.28;100253.28;4949777;28;20294;-83
2021/10/05 09:08:46;;;;;;;5.20;2.42;;;;;;;13.53;86.04;100246.69;4925067;29;20054;-84
2021/10/05 09:11:13;;;;;;;4.35;2.83;;;;;;;13.60;86.02;100244.00;4933592;28;20054;-83
2021/10/05 09:13:42;;;;;;;6.00;2.80;;;;;;;13.65;87.26;100241.56;4936997;28;20059;-83
2021/10/05 09:16:17;;;;;;;3.40;2.38;;;;;;;13.70;86.52;100243.69;4932792;28;20051;-83
2021/10/05 09:18:53;;;;;;;4.20;2.40;;;;;;;13.77;86.41;100239.16;4943838;28;20050;-85
2021/10/05 09:21:18;;;;;;;4.13;2.28;;;;;;;13.83;85.47;100245.63;4943887;28;20051;-84
2021/10/05 09:23:55;;;;;;;5.07;2.60;;;;;;;13.88;85.15;100235.06;4947533;28;20051;-84
2021/10/05 09:26:35;;;;;;;5.97;2.85;;;;;;;13.93;85.08;100224.53;4958648;28;20259;-83
2021/10/05 09:29:13;;;;;;;4.70;2.20;;;;;;;13.94;84.81;100224.31;4952315;28;20043;-83
2021/10/05 09:32:08;;;;;;;5.57;2.25;;;;;;;14.01;85.33;100221.63;4960198;28;20142;-83
2021/10/05 09:34:45;;;;;;;3.53;2.00;;;;;;;14.07;84.16;100223.56;4927704;28;20070;-83
2021/10/05 09:37:12;;;;;;;6.00;2.00;;;;;;;14.12;83.58;100221.06;4965535;28;20445;-83
2021/10/05 09:39:43;;;;;;;4.38;1.83;;;;;;;14.19;82.81;100204.91;4967903;28;20051;-83
2021/10/05 09:42:10;;;;;;;3.35;1.63;;;;;;;14.27;82.69;100199.34;4966425;28;20109;-84
2021/10/05 09:44:35;;;;;;;3.95;2.17;;;;;;;14.37;82.52;100201.63;4951038;28;20251;-84
2021/10/05 09:47:01;;;;;;;4.72;1.90;;;;;;;14.40;81.99;100195.84;4959595;28;20670;-84
2021/10/05 09:49:26;;;;;;;2.75;1.52;;;;;;;14.47;81.82;100191.28;4964349;28;20065;-84
2021/10/05 09:52:01;;;;;;;5.43;2.10;;;;;;;14.58;81.41;100188.00;4958542;28;20162;-84
2021/10/05 09:54:27;;;;;;;4.10;1.83;;;;;;;14.64;81.02;100184.50;4958237;28;20050;-84
2021/10/05 09:56:54;;;;;;;3.85;1.48;;;;;;;14.71;79.98;100180.97;4958007;28;20039;-84
2021/10/05 09:59:19;;;;;;;4.22;1.50;;;;;;;14.78;79.64;100174.53;4955531;28;20130;-84
2021/10/05 10:01:45;;;;;;;2.67;1.30;;;;;;;14.92;81.07;100161.88;4957264;28;20198;-84
2021/10/05 10:04:11;;;;;;;3.33;1.60;;;;;;;15.01;80.72;100159.78;4959687;28;20054;-85
2021/10/05 10:06:38;;;;;;;2.70;1.50;;;;;;;15.09;80.45;100162.28;4957271;28;20050;-85
2021/10/05 10:09:05;;;;;;;3.38;1.45;;;;;;;15.12;78.96;100154.56;4963069;28;20051;-84
2021/10/05 10:11:31;;;;;;;4.43;1.40;;;;;;;15.12;78.58;100162.69;4953586;28;20097;-84
2021/10/05 10:13:59;;;;;;;3.42;1.35;;;;;;;15.18;79.18;100161.00;4946773;28;20078;-85
2021/10/05 10:16:25;;;;;;;4.05;1.40;;;;;;;15.28;78.57;100160.59;4958476;28;20042;-85
2021/10/05 10:18:52;;;;;;;2.88;1.15;;;;;;;15.42;79.47;100154.13;4955968;28;20066;-85
2021/10/05 10:21:25;;;;;;;5.25;1.30;;;;;;;15.55;77.87;100143.25;4940091;28;20061;-84
2021/10/05 10:24:09;;;;;;;2.15;1.00;;;;;;;15.56;77.88;100144.09;4927798;28;20126;-84
2021/10/05 10:26:37;;;;;;;4.20;1.73;;;;;;;15.56;77.54;100135.97;4943896;28;20109;-84
2021/10/05 10:29:03;;;;;;;2.08;1.08;;;;;;;15.60;77.36;100137.22;4946929;28;20057;-85
2021/10/05 10:31:33;;;;;;;3.17;1.15;;;;;;;15.70;75.78;100142.22;4947533;28;20063;-85
2021/10/05 10:33:58;;;;;;;2.83;0.95;;;;;;;15.79;75.65;100130.09;4944908;28;20118;-84
2021/10/05 10:36:29;;;;;;;2.53;1.17;;;;;;;15.87;75.24;100121.75;4943737;28;20078;-85
2021/10/05 10:39:07;;;;;;;2.67;1.27;;;;;;;15.95;74.23;100107.97;4945090;28;20486;-85
2021/10/05 10:41:32;;;;;;;3.10;1.10;;;;;;;16.05;75.71;100102.09;4947568;28;20406;-84
2021/10/05 10:44:04;;;;;;;3.75;1.30;;;;;;;16.19;75.52;100089.31;4941183;28;20050;-85
2021/10/05 10:46:38;;;;;;;2.10;0.98;;;;;;;16.30;75.20;100088.59;4954477;28;20543;-85
2021/10/05 10:49:11;;;;;;;6.07;1.50;;;;;;;16.38;73.60;100074.81;4959699;28;20055;-85
2021/10/05 10:51:40;;;;;;;3.38;0.85;;;;;;;16.37;73.45;100083.13;4944223;28;20063;-86
2021/10/05 10:54:22;;;;;;;2.08;0.82;;;;;;;16.40;73.01;100072.72;4940239;28;20498;-86
2021/10/05 10:57:00;;;;;;;2.60;1.08;;;;;;;16.45;73.18;100058.50;4914578;29;20539;-85
2021/10/05 10:59:27;;;;;;;2.45;0.85;;;;;;;16.55;72.17;100050.72;4928718;29;20504;-86
2021/10/05 11:01:53;;;;;;;4.47;1.00;;;;;;;16.65;73.06;100045.63;4933989;28;20052;-85
2021/10/05 11:04:20;;;;;;;3.72;1.05;;;;;;;16.73;72.09;100051.81;4952445;28;20039;-85
2021/10/05 11:06:52;;;;;;;3.85;0.80;;;;;;;16.71;70.51;100057.44;4946378;28;20044;-85
2021/10/05 11:09:18;;;;;;;2.38;0.63;;;;;;;16.72;69.93;100056.41;4942690;28;20035;-85
2021/10/05 11:11:58;;;;;;;1.40;0.70;;;;;;;16.74;71.21;100048.03;4931311;28;20038;-86
2021/10/05 11:14:38;;;;;;;3.60;1.20;;;;;;;16.89;70.75;100049.41;4949162;28;20042;-85
2021/10/05 11:17:08;;;;;;;1.25;0.63;;;;;;;16.93;70.60;100033.53;4948978;28;20144;-86
2021/10/05 11:19:36;;;;;;;1.73;0.63;;;;;;;16.99;70.61;100040.75;4962528;28;20078;-85
2021/10/05 11:22:05;;;;;;;3.20;0.85;;;;;;;17.02;70.71;100031.34;4953932;28;20050;-85
2021/10/05 11:24:43;;;;;;;3.30;0.90;;;;;;;17.10;71.68;100031.88;4959065;28;20043;-86